sensor_id;sensor_type;location;lat;lon;timestamp;temperature;humidity
5850;DHT22;2951;47.712;9.400;2023-02-11T00:02:06;-2.60;99.90
5850;DHT22;2951;47.712;9.400;2023-02-11T00:04:33;-2.60;99.90
5850;DHT22;2951;47.712;9.400;2023-02-11T00:07:00;-2.60;99.90
5850;DHT22;2951;47.712;9.400;2023-02-11T00:09:27;-2.60;99.90
5850;DHT22;2951;47.712;9.400;2023-02-11T00:11:57;-2.60;99.90
5850;DHT22;2951;47.712;9.400;2023-02-11T00:14:23;-2.70;99.90
5850;DHT22;2951;47.712;9.400;2023-02-11T00:16:50;-2.70;99.90
5850;DHT22;2951;47.712;9.400;2023-02-11T00:19:17;-2.70;99.90
5850;DHT22;2951;47.712;9.400;2023-02-11T00:21:43;-2.80;99.90
5850;DHT22;2951;47.712;9.400;2023-02-11T00:24:10;-2.80;99.90
5850;DHT22;2951;47.712;9.400;2023-02-11T00:26:37;-2.80;99.90
5850;DHT22;2951;47.712;9.400;2023-02-11T00:29:03;-2.80;99.90
5850;DHT22;2951;47.712;9.400;2023-02-11T00:31:30;-2.90;99.90
5850;DHT22;2951;47.712;9.400;2023-02-11T00:33:57;-3.00;99.90
5850;DHT22;2951;47.712;9.400;2023-02-11T00:36:25;-3.00;99.90
5850;DHT22;2951;47.712;9.400;2023-02-11T00:38:52;-3.00;99.90
5850;DHT22;2951;47.712;9.400;2023-02-11T00:41:19;-3.00;99.90
5850;DHT22;2951;47.712;9.400;2023-02-11T00:43:46;-3.00;99.90
5850;DHT22;2951;47.712;9.400;2023-02-11T00:46:13;-3.00;99.90
5850;DHT22;2951;47.712;9.400;2023-02-11T00:48:40;-3.10;99.90
5850;DHT22;2951;47.712;9.400;2023-02-11T00:51:07;-3.20;99.90
5850;DHT22;2951;47.712;9.400;2023-02-11T00:53:34;-3.20;99.90
5850;DHT22;2951;47.712;9.400;2023-02-11T00:56:01;-3.20;99.90
5850;DHT22;2951;47.712;9.400;2023-02-11T00:58:28;-3.10;99.90
5850;DHT22;2951;47.712;9.400;2023-02-11T01:00:55;-3.10;99.90
5850;DHT22;2951;47.712;9.400;2023-02-11T01:03:22;-3.20;99.90
5850;DHT22;2951;47.712;9.400;2023-02-11T01:05:49;-3.10;99.90
5850;DHT22;2951;47.712;9.400;2023-02-11T01:08:16;-3.10;99.90
5850;DHT22;2951;47.712;9.400;2023-02-11T01:10:42;-3.10;99.90
5850;DHT22;2951;47.712;9.400;2023-02-11T01:13:09;-3.10;99.90
5850;DHT22;2951;47.712;9.400;2023-02-11T01:15:36;-3.20;99.90
5850;DHT22;2951;47.712;9.400;2023-02-11T01:18:03;-3.20;99.90
5850;DHT22;2951;47.712;9.400;2023-02-11T01:20:30;-3.20;99.90
5850;DHT22;2951;47.712;9.400;2023-02-11T01:22:56;-3.40;99.90
5850;DHT22;2951;47.712;9.400;2023-02-11T01:25:23;-3.40;99.90
5850;DHT22;2951;47.712;9.400;2023-02-11T01:27:50;-3.40;99.90
5850;DHT22;2951;47.712;9.400;2023-02-11T01:30:16;-3.40;99.90
5850;DHT22;2951;47.712;9.400;2023-02-11T01:32:43;-3.30;99.90
5850;DHT22;2951;47.712;9.400;2023-02-11T01:35:09;-3.40;99.90
5850;DHT22;2951;47.712;9.400;2023-02-11T01:37:36;-3.50;99.90
5850;DHT22;2951;47.712;9.400;2023-02-11T01:40:04;-3.50;99.90
5850;DHT22;2951;47.712;9.400;2023-02-11T01:42:31;-3.60;99.90
5850;DHT22;2951;47.712;9.400;2023-02-11T01:44:59;-3.60;99.90
5850;DHT22;2951;47.712;9.400;2023-02-11T01:47:26;-3.50;99.90
5850;DHT22;2951;47.712;9.400;2023-02-11T01:49:54;-3.40;99.90
5850;DHT22;2951;47.712;9.400;2023-02-11T01:52:26;-3.40;99.90
5850;DHT22;2951;47.712;9.400;2023-02-11T01:54:56;-3.40;99.90
5850;DHT22;2951;47.712;9.400;2023-02-11T01:57:44;-3.40;99.90
5850;DHT22;2951;47.712;9.400;2023-02-11T02:00:25;-3.40;99.90
5850;DHT22;2951;47.712;9.400;2023-02-11T02:03:06;-3.40;99.90
5850;DHT22;2951;47.712;9.400;2023-02-11T02:05:38;-3.40;99.90
5850;DHT22;2951;47.712;9.400;2023-02-11T02:08:10;-3.40;99.90
5850;DHT22;2951;47.712;9.400;2023-02-11T02:10:40;-3.40;99.90
5850;DHT22;2951;47.712;9.400;2023-02-11T02:13:07;-3.40;99.90
5850;DHT22;2951;47.712;9.400;2023-02-11T02:15:37;-3.50;99.90
5850;DHT22;2951;47.712;9.400;2023-02-11T02:23:19;-3.90;99.90
5850;DHT22;2951;47.712;9.400;2023-02-11T02:33:39;-3.60;99.90
5850;DHT22;2951;47.712;9.400;2023-02-11T02:36:17;-3.60;99.90
5850;DHT22;2951;47.712;9.400;2023-02-11T02:39:09;-3.60;99.90
5850;DHT22;2951;47.712;9.400;2023-02-11T02:41:37;-3.60;99.90
5850;DHT22;2951;47.712;9.400;2023-02-11T02:44:05;-3.50;99.90
5850;DHT22;2951;47.712;9.400;2023-02-11T02:46:33;-3.60;99.90
5850;DHT22;2951;47.712;9.400;2023-02-11T02:49:00;-3.60;99.90
5850;DHT22;2951;47.712;9.400;2023-02-11T03:02:34;-3.50;99.90
5850;DHT22;2951;47.712;9.400;2023-02-11T03:05:15;-3.60;99.90
5850;DHT22;2951;47.712;9.400;2023-02-11T03:10:11;-3.60;99.90
5850;DHT22;2951;47.712;9.400;2023-02-11T03:12:39;-3.60;99.90
5850;DHT22;2951;47.712;9.400;2023-02-11T03:15:07;-3.80;99.90
5850;DHT22;2951;47.712;9.400;2023-02-11T03:17:34;-3.80;99.90
5850;DHT22;2951;47.712;9.400;2023-02-11T03:20:02;-3.90;99.90
5850;DHT22;2951;47.712;9.400;2023-02-11T03:22:37;-4.00;99.90
5850;DHT22;2951;47.712;9.400;2023-02-11T03:25:05;-4.20;99.90
5850;DHT22;2951;47.712;9.400;2023-02-11T03:27:35;-4.30;99.90
5850;DHT22;2951;47.712;9.400;2023-02-11T03:32:35;-4.20;99.90
5850;DHT22;2951;47.712;9.400;2023-02-11T03:37:51;-4.00;99.90
5850;DHT22;2951;47.712;9.400;2023-02-11T03:40:20;-3.90;99.90
5850;DHT22;2951;47.712;9.400;2023-02-11T03:42:52;-3.90;99.90
5850;DHT22;2951;47.712;9.400;2023-02-11T03:45:21;-3.90;99.90
5850;DHT22;2951;47.712;9.400;2023-02-11T03:47:51;-3.90;99.90
5850;DHT22;2951;47.712;9.400;2023-02-11T03:50:18;-3.90;99.90
5850;DHT22;2951;47.712;9.400;2023-02-11T03:52:46;-3.80;99.90
5850;DHT22;2951;47.712;9.400;2023-02-11T03:55:15;-3.80;99.90
5850;DHT22;2951;47.712;9.400;2023-02-11T03:57:42;-3.80;99.90
5850;DHT22;2951;47.712;9.400;2023-02-11T04:00:09;-3.70;99.90
5850;DHT22;2951;47.712;9.400;2023-02-11T04:02:37;-3.70;99.90
5850;DHT22;2951;47.712;9.400;2023-02-11T04:05:05;-3.80;99.90
5850;DHT22;2951;47.712;9.400;2023-02-11T04:07:32;-3.90;99.90
5850;DHT22;2951;47.712;9.400;2023-02-11T04:09:59;-4.00;99.90
5850;DHT22;2951;47.712;9.400;2023-02-11T04:12:25;-4.00;99.90
5850;DHT22;2951;47.712;9.400;2023-02-11T04:14:52;-3.90;99.90
5850;DHT22;2951;47.712;9.400;2023-02-11T04:17:18;-3.80;99.90
5850;DHT22;2951;47.712;9.400;2023-02-11T04:19:45;-3.70;99.90
5850;DHT22;2951;47.712;9.400;2023-02-11T04:22:12;-3.60;99.90
5850;DHT22;2951;47.712;9.400;2023-02-11T04:24:38;-3.50;99.90
5850;DHT22;2951;47.712;9.400;2023-02-11T04:27:05;-3.60;99.90
5850;DHT22;2951;47.712;9.400;2023-02-11T04:29:32;-3.70;99.90
5850;DHT22;2951;47.712;9.400;2023-02-11T04:31:58;-3.80;99.90
5850;DHT22;2951;47.712;9.400;2023-02-11T04:34:25;-3.80;99.90
5850;DHT22;2951;47.712;9.400;2023-02-11T04:36:52;-3.90;99.90
5850;DHT22;2951;47.712;9.400;2023-02-11T04:39:18;-3.80;99.90
5850;DHT22;2951;47.712;9.400;2023-02-11T04:41:45;-3.70;99.90
5850;DHT22;2951;47.712;9.400;2023-02-11T04:44:12;-3.60;99.90
5850;DHT22;2951;47.712;9.400;2023-02-11T04:46:38;-3.60;99.90
5850;DHT22;2951;47.712;9.400;2023-02-11T04:49:05;-3.50;99.90
5850;DHT22;2951;47.712;9.400;2023-02-11T04:51:31;-3.40;99.90
5850;DHT22;2951;47.712;9.400;2023-02-11T04:53:58;-3.40;99.90
5850;DHT22;2951;47.712;9.400;2023-02-11T04:56:25;-3.40;99.90
5850;DHT22;2951;47.712;9.400;2023-02-11T04:58:52;-3.40;99.90
5850;DHT22;2951;47.712;9.400;2023-02-11T05:01:18;-3.40;99.90
5850;DHT22;2951;47.712;9.400;2023-02-11T05:03:45;-3.40;99.90
5850;DHT22;2951;47.712;9.400;2023-02-11T05:06:12;-3.40;99.90
5850;DHT22;2951;47.712;9.400;2023-02-11T05:08:38;-3.50;99.90
5850;DHT22;2951;47.712;9.400;2023-02-11T05:11:05;-3.40;99.90
5850;DHT22;2951;47.712;9.400;2023-02-11T05:13:32;-3.40;99.90
5850;DHT22;2951;47.712;9.400;2023-02-11T05:15:59;-3.50;99.90
5850;DHT22;2951;47.712;9.400;2023-02-11T05:18:26;-3.50;99.90
5850;DHT22;2951;47.712;9.400;2023-02-11T05:20:52;-3.40;99.90
5850;DHT22;2951;47.712;9.400;2023-02-11T05:23:19;-3.50;99.90
5850;DHT22;2951;47.712;9.400;2023-02-11T05:25:45;-3.50;99.90
5850;DHT22;2951;47.712;9.400;2023-02-11T05:28:12;-3.50;99.90
5850;DHT22;2951;47.712;9.400;2023-02-11T05:30:39;-3.50;99.90
5850;DHT22;2951;47.712;9.400;2023-02-11T05:33:06;-3.50;99.90
5850;DHT22;2951;47.712;9.400;2023-02-11T05:35:32;-3.50;99.90
5850;DHT22;2951;47.712;9.400;2023-02-11T05:37:59;-3.60;99.90
5850;DHT22;2951;47.712;9.400;2023-02-11T05:40:26;-3.60;99.90
5850;DHT22;2951;47.712;9.400;2023-02-11T05:42:52;-3.60;99.90
5850;DHT22;2951;47.712;9.400;2023-02-11T05:45:19;-3.70;99.90
5850;DHT22;2951;47.712;9.400;2023-02-11T05:47:45;-3.90;99.90
5850;DHT22;2951;47.712;9.400;2023-02-11T05:50:12;-4.10;99.90
5850;DHT22;2951;47.712;9.400;2023-02-11T05:52:39;-4.00;99.90
5850;DHT22;2951;47.712;9.400;2023-02-11T05:55:05;-3.90;99.90
5850;DHT22;2951;47.712;9.400;2023-02-11T05:57:32;-3.90;99.90
5850;DHT22;2951;47.712;9.400;2023-02-11T05:59:59;-3.90;99.90
5850;DHT22;2951;47.712;9.400;2023-02-11T06:02:25;-3.80;99.90
5850;DHT22;2951;47.712;9.400;2023-02-11T06:04:52;-3.80;99.90
5850;DHT22;2951;47.712;9.400;2023-02-11T06:07:19;-3.80;99.90
5850;DHT22;2951;47.712;9.400;2023-02-11T06:09:46;-3.80;99.90
5850;DHT22;2951;47.712;9.400;2023-02-11T06:12:12;-3.70;99.90
5850;DHT22;2951;47.712;9.400;2023-02-11T06:14:39;-3.80;99.90
5850;DHT22;2951;47.712;9.400;2023-02-11T06:17:05;-3.70;99.90
5850;DHT22;2951;47.712;9.400;2023-02-11T06:19:32;-3.80;99.90
5850;DHT22;2951;47.712;9.400;2023-02-11T06:21:59;-3.80;99.90
5850;DHT22;2951;47.712;9.400;2023-02-11T06:24:26;-3.70;99.90
5850;DHT22;2951;47.712;9.400;2023-02-11T06:27:12;-3.80;99.90
5850;DHT22;2951;47.712;9.400;2023-02-11T06:29:39;-3.90;99.90
5850;DHT22;2951;47.712;9.400;2023-02-11T06:32:05;-3.80;99.90
5850;DHT22;2951;47.712;9.400;2023-02-11T06:34:38;-3.80;99.90
5850;DHT22;2951;47.712;9.400;2023-02-11T06:37:05;-3.80;99.90
5850;DHT22;2951;47.712;9.400;2023-02-11T06:39:32;-3.70;99.90
5850;DHT22;2951;47.712;9.400;2023-02-11T06:41:58;-3.70;99.90
5850;DHT22;2951;47.712;9.400;2023-02-11T06:44:25;-3.70;99.90
5850;DHT22;2951;47.712;9.400;2023-02-11T06:46:52;-3.60;99.90
5850;DHT22;2951;47.712;9.400;2023-02-11T06:49:18;-3.60;99.90
5850;DHT22;2951;47.712;9.400;2023-02-11T06:51:45;-3.50;99.90
5850;DHT22;2951;47.712;9.400;2023-02-11T06:54:11;-3.60;99.90
5850;DHT22;2951;47.712;9.400;2023-02-11T06:56:39;-3.80;99.90
5850;DHT22;2951;47.712;9.400;2023-02-11T06:59:06;-4.10;99.90
5850;DHT22;2951;47.712;9.400;2023-02-11T07:01:32;-4.10;99.90
5850;DHT22;2951;47.712;9.400;2023-02-11T07:03:59;-4.10;99.90
5850;DHT22;2951;47.712;9.400;2023-02-11T07:06:26;-3.90;99.90
5850;DHT22;2951;47.712;9.400;2023-02-11T07:08:54;-3.80;99.90
5850;DHT22;2951;47.712;9.400;2023-02-11T07:11:22;-3.70;99.90
5850;DHT22;2951;47.712;9.400;2023-02-11T07:13:53;-3.60;99.90
5850;DHT22;2951;47.712;9.400;2023-02-11T07:16:20;-3.60;99.90
5850;DHT22;2951;47.712;9.400;2023-02-11T07:18:47;-3.50;99.90
5850;DHT22;2951;47.712;9.400;2023-02-11T07:21:15;-3.50;99.90
5850;DHT22;2951;47.712;9.400;2023-02-11T07:23:42;-3.40;99.90
5850;DHT22;2951;47.712;9.400;2023-02-11T07:26:10;-3.30;99.90
5850;DHT22;2951;47.712;9.400;2023-02-11T07:28:37;-3.10;99.90
5850;DHT22;2951;47.712;9.400;2023-02-11T07:31:07;-2.80;99.90
5850;DHT22;2951;47.712;9.400;2023-02-11T07:33:35;-2.60;99.90
5850;DHT22;2951;47.712;9.400;2023-02-11T07:36:02;-2.50;99.90
5850;DHT22;2951;47.712;9.400;2023-02-11T07:38:30;-2.30;99.90
5850;DHT22;2951;47.712;9.400;2023-02-11T07:41:07;-2.10;99.90
5850;DHT22;2951;47.712;9.400;2023-02-11T07:43:35;-1.90;99.90
5850;DHT22;2951;47.712;9.400;2023-02-11T07:46:02;-1.70;99.90
5850;DHT22;2951;47.712;9.400;2023-02-11T07:48:29;-1.80;99.90
5850;DHT22;2951;47.712;9.400;2023-02-11T07:51:03;-1.70;99.90
5850;DHT22;2951;47.712;9.400;2023-02-11T07:53:30;-1.70;99.90
5850;DHT22;2951;47.712;9.400;2023-02-11T07:55:57;-1.60;99.90
5850;DHT22;2951;47.712;9.400;2023-02-11T07:58:23;-1.40;99.90
5850;DHT22;2951;47.712;9.400;2023-02-11T08:00:50;-1.30;99.90
5850;DHT22;2951;47.712;9.400;2023-02-11T08:03:17;-1.30;99.90
5850;DHT22;2951;47.712;9.400;2023-02-11T08:05:43;-1.30;99.90
5850;DHT22;2951;47.712;9.400;2023-02-11T08:08:10;-1.20;99.90
5850;DHT22;2951;47.712;9.400;2023-02-11T08:10:37;-1.00;99.90
5850;DHT22;2951;47.712;9.400;2023-02-11T08:13:04;-0.80;99.90
5850;DHT22;2951;47.712;9.400;2023-02-11T08:15:30;-0.70;99.90
5850;DHT22;2951;47.712;9.400;2023-02-11T08:17:57;-0.60;99.90
5850;DHT22;2951;47.712;9.400;2023-02-11T08:20:24;-0.70;99.90
5850;DHT22;2951;47.712;9.400;2023-02-11T08:22:50;-0.70;99.90
5850;DHT22;2951;47.712;9.400;2023-02-11T08:25:17;-0.60;99.90
5850;DHT22;2951;47.712;9.400;2023-02-11T08:27:43;-0.50;99.90
5850;DHT22;2951;47.712;9.400;2023-02-11T08:30:10;-0.30;99.90
5850;DHT22;2951;47.712;9.400;2023-02-11T08:32:37;-0.10;99.90
5850;DHT22;2951;47.712;9.400;2023-02-11T08:35:05;0.00;99.90
5850;DHT22;2951;47.712;9.400;2023-02-11T08:37:33;0.10;99.90
5850;DHT22;2951;47.712;9.400;2023-02-11T08:39:59;0.20;99.90
5850;DHT22;2951;47.712;9.400;2023-02-11T08:42:26;0.30;99.90
5850;DHT22;2951;47.712;9.400;2023-02-11T08:44:53;0.40;99.90
5850;DHT22;2951;47.712;9.400;2023-02-11T08:47:19;0.50;99.90
5850;DHT22;2951;47.712;9.400;2023-02-11T08:49:46;0.60;99.90
5850;DHT22;2951;47.712;9.400;2023-02-11T08:52:12;0.60;99.90
5850;DHT22;2951;47.712;9.400;2023-02-11T08:54:39;0.50;99.90
5850;DHT22;2951;47.712;9.400;2023-02-11T08:57:06;0.30;99.90
5850;DHT22;2951;47.712;9.400;2023-02-11T08:59:32;0.30;99.90
5850;DHT22;2951;47.712;9.400;2023-02-11T09:02:00;0.30;99.90
5850;DHT22;2951;47.712;9.400;2023-02-11T09:04:26;0.30;99.90
5850;DHT22;2951;47.712;9.400;2023-02-11T09:06:53;0.30;99.90
5850;DHT22;2951;47.712;9.400;2023-02-11T09:09:20;0.40;99.90
5850;DHT22;2951;47.712;9.400;2023-02-11T09:11:47;0.40;99.90
5850;DHT22;2951;47.712;9.400;2023-02-11T09:14:17;0.70;99.90
5850;DHT22;2951;47.712;9.400;2023-02-11T09:16:45;0.80;99.90
5850;DHT22;2951;47.712;9.400;2023-02-11T09:19:12;1.00;99.90
5850;DHT22;2951;47.712;9.400;2023-02-11T09:21:38;1.00;99.90
5850;DHT22;2951;47.712;9.400;2023-02-11T09:24:05;1.10;99.90
5850;DHT22;2951;47.712;9.400;2023-02-11T09:26:32;1.00;99.90
5850;DHT22;2951;47.712;9.400;2023-02-11T09:28:59;1.10;99.90
5850;DHT22;2951;47.712;9.400;2023-02-11T09:31:27;1.20;99.90
5850;DHT22;2951;47.712;9.400;2023-02-11T09:33:56;1.30;99.90
5850;DHT22;2951;47.712;9.400;2023-02-11T09:36:24;1.30;99.90
5850;DHT22;2951;47.712;9.400;2023-02-11T09:38:51;1.30;99.90
5850;DHT22;2951;47.712;9.400;2023-02-11T09:43:51;1.70;99.90
5850;DHT22;2951;47.712;9.400;2023-02-11T09:46:19;1.70;99.90
5850;DHT22;2951;47.712;9.400;2023-02-11T09:48:47;1.80;99.90
5850;DHT22;2951;47.712;9.400;2023-02-11T09:54:00;1.80;99.90
5850;DHT22;2951;47.712;9.400;2023-02-11T09:56:31;1.90;99.90
5850;DHT22;2951;47.712;9.400;2023-02-11T09:58:57;1.70;99.90
5850;DHT22;2951;47.712;9.400;2023-02-11T10:09:18;1.90;99.90
5850;DHT22;2951;47.712;9.400;2023-02-11T10:24:56;2.00;99.90
5850;DHT22;2951;47.712;9.400;2023-02-11T10:27:32;2.00;99.90
5850;DHT22;2951;47.712;9.400;2023-02-11T10:30:00;2.10;99.90
5850;DHT22;2951;47.712;9.400;2023-02-11T10:34:59;2.20;99.90
5850;DHT22;2951;47.712;9.400;2023-02-11T10:37:27;2.20;99.90
5850;DHT22;2951;47.712;9.400;2023-02-11T10:39:53;2.20;99.90
5850;DHT22;2951;47.712;9.400;2023-02-11T10:42:20;2.20;99.90
5850;DHT22;2951;47.712;9.400;2023-02-11T10:44:56;2.00;99.90
5850;DHT22;2951;47.712;9.400;2023-02-11T10:47:24;2.00;99.90
5850;DHT22;2951;47.712;9.400;2023-02-11T10:49:51;2.00;99.90
5850;DHT22;2951;47.712;9.400;2023-02-11T10:57:27;2.20;99.90
5850;DHT22;2951;47.712;9.400;2023-02-11T10:59:56;2.20;99.90
5850;DHT22;2951;47.712;9.400;2023-02-11T11:02:33;2.30;99.90
5850;DHT22;2951;47.712;9.400;2023-02-11T11:05:14;2.40;99.90
5850;DHT22;2951;47.712;9.400;2023-02-11T11:07:50;2.50;99.90
5850;DHT22;2951;47.712;9.400;2023-02-11T11:10:28;2.60;99.90
5850;DHT22;2951;47.712;9.400;2023-02-11T11:12:55;2.50;99.90
5850;DHT22;2951;47.712;9.400;2023-02-11T11:15:23;2.50;99.90
5850;DHT22;2951;47.712;9.400;2023-02-11T11:17:50;2.60;99.90
5850;DHT22;2951;47.712;9.400;2023-02-11T11:20:57;2.60;99.90
5850;DHT22;2951;47.712;9.400;2023-02-11T11:23:25;2.70;99.90
5850;DHT22;2951;47.712;9.400;2023-02-11T11:28:26;2.90;99.90
5850;DHT22;2951;47.712;9.400;2023-02-11T11:30:54;2.90;99.90
5850;DHT22;2951;47.712;9.400;2023-02-11T11:33:24;3.10;99.90
5850;DHT22;2951;47.712;9.400;2023-02-11T11:35:54;3.10;99.90
5850;DHT22;2951;47.712;9.400;2023-02-11T11:38:22;3.30;99.90
5850;DHT22;2951;47.712;9.400;2023-02-11T11:43:35;3.20;99.90
5850;DHT22;2951;47.712;9.400;2023-02-11T11:46:03;3.40;99.90
5850;DHT22;2951;47.712;9.400;2023-02-11T11:50:58;3.40;99.90
5850;DHT22;2951;47.712;9.400;2023-02-11T11:56:04;3.40;99.90
5850;DHT22;2951;47.712;9.400;2023-02-11T11:58:31;3.50;99.90
5850;DHT22;2951;47.712;9.400;2023-02-11T12:11:30;3.80;99.90
5850;DHT22;2951;47.712;9.400;2023-02-11T12:19:02;4.20;99.90
5850;DHT22;2951;47.712;9.400;2023-02-11T12:26:42;4.50;99.90
5850;DHT22;2951;47.712;9.400;2023-02-11T12:32:22;4.70;99.90
5850;DHT22;2951;47.712;9.400;2023-02-11T12:40:11;5.00;99.90
5850;DHT22;2951;47.712;9.400;2023-02-11T12:45:34;5.30;99.90
5850;DHT22;2951;47.712;9.400;2023-02-11T12:50:53;5.40;99.90
5850;DHT22;2951;47.712;9.400;2023-02-11T12:53:40;5.50;99.90
5850;DHT22;2951;47.712;9.400;2023-02-11T12:56:19;5.50;99.90
5850;DHT22;2951;47.712;9.400;2023-02-11T12:58:49;5.50;99.90
5850;DHT22;2951;47.712;9.400;2023-02-11T13:01:38;5.60;99.90
5850;DHT22;2951;47.712;9.400;2023-02-11T13:04:16;5.80;99.90
5850;DHT22;2951;47.712;9.400;2023-02-11T13:06:46;5.90;99.90
5850;DHT22;2951;47.712;9.400;2023-02-11T13:09:19;5.90;99.90
5850;DHT22;2951;47.712;9.400;2023-02-11T13:11:52;5.90;99.90
5850;DHT22;2951;47.712;9.400;2023-02-11T13:14:22;6.00;99.90
5850;DHT22;2951;47.712;9.400;2023-02-11T13:16:49;6.10;99.90
5850;DHT22;2951;47.712;9.400;2023-02-11T13:19:33;6.30;99.90
5850;DHT22;2951;47.712;9.400;2023-02-11T13:22:11;6.30;99.90
5850;DHT22;2951;47.712;9.400;2023-02-11T13:24:46;6.40;99.90
5850;DHT22;2951;47.712;9.400;2023-02-11T13:35:36;6.10;99.90
5850;DHT22;2951;47.712;9.400;2023-02-11T13:40:42;6.20;99.90
5850;DHT22;2951;47.712;9.400;2023-02-11T13:43:19;6.10;99.90
5850;DHT22;2951;47.712;9.400;2023-02-11T13:45:47;6.10;99.90
5850;DHT22;2951;47.712;9.400;2023-02-11T13:50:48;6.00;99.90
5850;DHT22;2951;47.712;9.400;2023-02-11T13:53:16;6.00;99.90
5850;DHT22;2951;47.712;9.400;2023-02-11T13:55:43;6.10;99.90
5850;DHT22;2951;47.712;9.400;2023-02-11T14:00:48;6.30;99.90
5850;DHT22;2951;47.712;9.400;2023-02-11T14:09:00;7.00;99.90
5850;DHT22;2951;47.712;9.400;2023-02-11T14:17:25;7.00;99.90
5850;DHT22;2951;47.712;9.400;2023-02-11T14:19:37;6.90;99.90
5850;DHT22;2951;47.712;9.400;2023-02-11T14:27:00;6.50;99.90
5850;DHT22;2951;47.712;9.400;2023-02-11T14:37:15;6.40;99.90
5850;DHT22;2951;47.712;9.400;2023-02-11T14:39:50;6.40;99.90
5850;DHT22;2951;47.712;9.400;2023-02-11T14:42:19;6.20;99.90
5850;DHT22;2951;47.712;9.400;2023-02-11T14:44:48;6.20;99.90
5850;DHT22;2951;47.712;9.400;2023-02-11T14:47:16;6.00;99.90
5850;DHT22;2951;47.712;9.400;2023-02-11T14:49:44;6.00;99.90
5850;DHT22;2951;47.712;9.400;2023-02-11T14:54:47;6.00;99.90
5850;DHT22;2951;47.712;9.400;2023-02-11T14:57:15;6.00;99.90
5850;DHT22;2951;47.712;9.400;2023-02-11T14:59:52;5.80;99.90
5850;DHT22;2951;47.712;9.400;2023-02-11T15:02:21;5.80;99.90
5850;DHT22;2951;47.712;9.400;2023-02-11T15:04:49;5.90;99.90
5850;DHT22;2951;47.712;9.400;2023-02-11T15:07:15;6.00;99.90
5850;DHT22;2951;47.712;9.400;2023-02-11T15:09:47;6.00;99.90
5850;DHT22;2951;47.712;9.400;2023-02-11T15:12:26;6.00;99.90
5850;DHT22;2951;47.712;9.400;2023-02-11T15:14:54;5.80;99.90
5850;DHT22;2951;47.712;9.400;2023-02-11T15:17:22;5.80;99.90
5850;DHT22;2951;47.712;9.400;2023-02-11T15:19:51;5.90;99.90
5850;DHT22;2951;47.712;9.400;2023-02-11T15:22:21;5.90;99.90
5850;DHT22;2951;47.712;9.400;2023-02-11T15:27:24;5.60;99.90
5850;DHT22;2951;47.712;9.400;2023-02-11T15:29:51;5.70;99.90
5850;DHT22;2951;47.712;9.400;2023-02-11T15:34:45;5.50;99.90
5850;DHT22;2951;47.712;9.400;2023-02-11T15:37:16;5.40;99.90
5850;DHT22;2951;47.712;9.400;2023-02-11T15:39:43;5.40;99.90
5850;DHT22;2951;47.712;9.400;2023-02-11T15:42:24;5.40;99.90
5850;DHT22;2951;47.712;9.400;2023-02-11T15:47:55;5.20;99.90
5850;DHT22;2951;47.712;9.400;2023-02-11T15:50:26;5.00;99.90
5850;DHT22;2951;47.712;9.400;2023-02-11T15:52:54;5.00;99.90
5850;DHT22;2951;47.712;9.400;2023-02-11T15:55:21;4.90;99.90
5850;DHT22;2951;47.712;9.400;2023-02-11T15:57:55;4.70;99.90
5850;DHT22;2951;47.712;9.400;2023-02-11T16:00:23;4.70;99.90
5850;DHT22;2951;47.712;9.400;2023-02-11T16:02:52;4.60;99.90
5850;DHT22;2951;47.712;9.400;2023-02-11T16:07:52;5.00;99.90
5850;DHT22;2951;47.712;9.400;2023-02-11T16:12:53;5.40;99.90
5850;DHT22;2951;47.712;9.400;2023-02-11T16:18:03;5.70;99.90
5850;DHT22;2951;47.712;9.400;2023-02-11T16:20:38;5.70;99.90
5850;DHT22;2951;47.712;9.400;2023-02-11T16:23:05;5.80;99.90
5850;DHT22;2951;47.712;9.400;2023-02-11T16:25:36;5.60;99.90
5850;DHT22;2951;47.712;9.400;2023-02-11T16:28:03;5.30;99.90
5850;DHT22;2951;47.712;9.400;2023-02-11T16:30:34;5.20;99.90
5850;DHT22;2951;47.712;9.400;2023-02-11T16:33:03;4.80;99.90
5850;DHT22;2951;47.712;9.400;2023-02-11T16:35:31;4.70;99.90
5850;DHT22;2951;47.712;9.400;2023-02-11T16:37:57;4.60;99.90
5850;DHT22;2951;47.712;9.400;2023-02-11T16:40:24;4.60;99.90
5850;DHT22;2951;47.712;9.400;2023-02-11T16:42:51;4.50;99.90
5850;DHT22;2951;47.712;9.400;2023-02-11T16:45:18;4.40;99.90
5850;DHT22;2951;47.712;9.400;2023-02-11T16:47:45;4.20;99.90
5850;DHT22;2951;47.712;9.400;2023-02-11T16:50:18;4.20;99.90
5850;DHT22;2951;47.712;9.400;2023-02-11T16:52:45;4.10;99.90
5850;DHT22;2951;47.712;9.400;2023-02-11T16:55:12;3.90;99.90
5850;DHT22;2951;47.712;9.400;2023-02-11T16:57:41;3.80;99.90
5850;DHT22;2951;47.712;9.400;2023-02-11T17:00:07;3.70;99.90
5850;DHT22;2951;47.712;9.400;2023-02-11T17:02:35;3.50;99.90
5850;DHT22;2951;47.712;9.400;2023-02-11T17:05:03;3.40;99.90
5850;DHT22;2951;47.712;9.400;2023-02-11T17:07:30;3.30;99.90
5850;DHT22;2951;47.712;9.400;2023-02-11T17:09:56;3.20;99.90
5850;DHT22;2951;47.712;9.400;2023-02-11T17:12:23;3.00;99.90
5850;DHT22;2951;47.712;9.400;2023-02-11T17:14:51;2.80;99.90
5850;DHT22;2951;47.712;9.400;2023-02-11T17:17:17;2.80;99.90
5850;DHT22;2951;47.712;9.400;2023-02-11T17:19:44;2.70;99.90
5850;DHT22;2951;47.712;9.400;2023-02-11T17:22:13;2.60;99.90
5850;DHT22;2951;47.712;9.400;2023-02-11T17:24:39;2.50;99.90
5850;DHT22;2951;47.712;9.400;2023-02-11T17:27:06;2.50;99.90
5850;DHT22;2951;47.712;9.400;2023-02-11T17:29:32;2.40;99.90
5850;DHT22;2951;47.712;9.400;2023-02-11T17:31:59;2.30;99.90
5850;DHT22;2951;47.712;9.400;2023-02-11T17:34:26;2.20;99.90
5850;DHT22;2951;47.712;9.400;2023-02-11T17:36:54;2.20;99.90
5850;DHT22;2951;47.712;9.400;2023-02-11T17:39:21;2.10;99.90
5850;DHT22;2951;47.712;9.400;2023-02-11T17:41:48;1.90;99.90
5850;DHT22;2951;47.712;9.400;2023-02-11T17:44:14;1.90;99.90
5850;DHT22;2951;47.712;9.400;2023-02-11T17:46:42;1.80;99.90
5850;DHT22;2951;47.712;9.400;2023-02-11T17:49:09;1.70;99.90
5850;DHT22;2951;47.712;9.400;2023-02-11T17:51:37;1.60;99.90
5850;DHT22;2951;47.712;9.400;2023-02-11T17:54:05;1.50;99.90
5850;DHT22;2951;47.712;9.400;2023-02-11T17:56:32;1.50;99.90
5850;DHT22;2951;47.712;9.400;2023-02-11T17:58:59;1.40;99.90
5850;DHT22;2951;47.712;9.400;2023-02-11T18:01:28;1.40;99.90
5850;DHT22;2951;47.712;9.400;2023-02-11T18:03:55;1.40;99.90
5850;DHT22;2951;47.712;9.400;2023-02-11T18:06:21;1.30;99.90
5850;DHT22;2951;47.712;9.400;2023-02-11T18:08:48;1.20;99.90
5850;DHT22;2951;47.712;9.400;2023-02-11T18:11:15;1.20;99.90
5850;DHT22;2951;47.712;9.400;2023-02-11T18:13:42;1.10;99.90
5850;DHT22;2951;47.712;9.400;2023-02-11T18:16:09;1.00;99.90
5850;DHT22;2951;47.712;9.400;2023-02-11T18:18:41;1.00;99.90
5850;DHT22;2951;47.712;9.400;2023-02-11T18:21:10;1.00;99.90
5850;DHT22;2951;47.712;9.400;2023-02-11T18:23:38;1.00;99.90
5850;DHT22;2951;47.712;9.400;2023-02-11T18:26:08;1.00;99.90
5850;DHT22;2951;47.712;9.400;2023-02-11T18:28:35;0.90;99.90
5850;DHT22;2951;47.712;9.400;2023-02-11T18:31:02;0.90;99.90
5850;DHT22;2951;47.712;9.400;2023-02-11T18:33:29;0.80;99.90
5850;DHT22;2951;47.712;9.400;2023-02-11T18:35:55;0.80;99.90
5850;DHT22;2951;47.712;9.400;2023-02-11T18:38:23;0.70;99.90
5850;DHT22;2951;47.712;9.400;2023-02-11T18:40:49;0.70;99.90
5850;DHT22;2951;47.712;9.400;2023-02-11T18:43:18;0.60;99.90
5850;DHT22;2951;47.712;9.400;2023-02-11T18:45:46;0.60;99.90
5850;DHT22;2951;47.712;9.400;2023-02-11T18:48:13;0.60;99.90
5850;DHT22;2951;47.712;9.400;2023-02-11T18:50:40;0.50;99.90
5850;DHT22;2951;47.712;9.400;2023-02-11T18:53:07;0.50;99.90
5850;DHT22;2951;47.712;9.400;2023-02-11T18:55:34;0.40;99.90
5850;DHT22;2951;47.712;9.400;2023-02-11T18:58:02;0.40;99.90
5850;DHT22;2951;47.712;9.400;2023-02-11T19:00:29;0.40;99.90
5850;DHT22;2951;47.712;9.400;2023-02-11T19:02:56;0.30;99.90
5850;DHT22;2951;47.712;9.400;2023-02-11T19:05:23;0.30;99.90
5850;DHT22;2951;47.712;9.400;2023-02-11T19:07:56;0.30;99.90